createdAt,value
2023-01-23T07:28:09.980Z,-14.97
2023-01-23T07:33:13.330Z,-14.93
2023-01-23T07:38:16.683Z,-14.86
2023-01-23T07:43:21.549Z,-15.00
2023-01-23T07:48:24.826Z,-14.86
2023-01-23T07:53:28.107Z,-15.02
2023-01-23T07:58:33.214Z,-15.04
2023-01-23T08:03:39.584Z,-14.81
2023-01-23T08:08:45.414Z,-14.81
2023-01-23T08:13:51.631Z,-14.78
2023-01-23T08:18:55.012Z,-14.66
2023-01-23T08:23:58.616Z,-14.75
2023-01-23T08:29:05.679Z,-14.66
2023-01-23T08:34:09.007Z,-14.69
2023-01-23T08:39:12.419Z,-14.68
2023-01-23T08:44:17.175Z,-14.49
2023-01-23T08:49:20.567Z,-14.63
2023-01-23T08:54:23.836Z,-14.57
2023-01-23T08:59:29.167Z,-14.46
2023-01-23T09:04:32.466Z,-14.41
2023-01-23T09:09:35.873Z,-14.33
2023-01-23T09:14:40.943Z,-14.23
2023-01-23T09:19:46.767Z,-14.27
2023-01-23T09:24:50.617Z,-14.17
2023-01-23T09:29:56.073Z,-14.24
2023-01-23T09:35:00.125Z,-14.17
2023-01-23T09:40:03.870Z,-14.21
2023-01-23T09:45:13.617Z,-14.11
2023-01-23T09:50:19.722Z,-14.29
2023-01-23T09:55:25.458Z,-14.18
2023-01-23T10:00:31.930Z,-14.45
2023-01-23T10:05:39.804Z,-14.33
2023-01-23T10:10:54.837Z,-14.14
2023-01-23T10:16:07.054Z,-14.19
2023-01-23T10:21:16.718Z,-14.06
2023-01-23T10:26:22.150Z,-14.09
2023-01-23T10:31:32.019Z,-13.93
2023-01-23T10:36:47.935Z,-14.11
2023-01-23T10:42:02.388Z,-14.06
2023-01-23T10:47:17.090Z,-13.89
2023-01-23T10:52:50.095Z,-14.02
2023-01-23T10:57:54.720Z,-13.74
2023-01-23T11:03:19.247Z,-13.89
2023-01-23T11:08:27.278Z,-13.63
2023-01-23T11:13:31.828Z,-13.68
2023-01-23T11:18:42.696Z,-13.85
2023-01-23T11:23:46.387Z,-13.97
2023-01-23T11:28:51.251Z,-13.73
2023-01-23T11:34:02.345Z,-13.81
2023-01-23T11:39:13.406Z,-14.00
2023-01-23T11:44:18.619Z,-14.01
2023-01-23T11:49:29.833Z,-14.15
2023-01-23T11:54:48.407Z,-14.07
2023-01-23T12:00:06.818Z,-14.16
2023-01-23T12:05:27.642Z,-14.19
2023-01-23T12:10:39.128Z,-14.00
2023-01-23T12:15:45.462Z,-14.08
2023-01-23T12:20:54.262Z,-14.06
2023-01-23T12:26:02.611Z,-14.25
2023-01-23T12:31:17.939Z,-14.19
2023-01-23T12:36:44.131Z,-14.18
2023-01-23T12:41:58.206Z,-14.35
2023-01-23T12:47:05.629Z,-14.37
2023-01-23T12:52:12.679Z,-14.38
2023-01-23T12:57:52.289Z,-14.19
2023-01-23T13:03:10.288Z,-14.22
2023-01-23T13:08:21.416Z,-14.02
2023-01-23T13:13:27.844Z,-14.01
2023-01-23T13:18:51.401Z,-14.01
2023-01-23T13:24:34.681Z,-14.05
2023-01-23T13:29:50.232Z,-14.06
2023-01-23T13:34:53.908Z,-14.21
2023-01-23T13:40:06.746Z,-14.10
2023-01-23T13:45:28.566Z,-14.20
2023-01-23T14:23:53.393Z,-14.06
2023-01-23T14:28:57.430Z,-14.13
2023-01-23T14:34:09.785Z,-14.32
2023-01-23T14:39:18.606Z,-14.12
2023-01-23T14:44:25.096Z,-14.22
2023-01-23T14:49:31.430Z,-14.16
2023-01-23T14:54:36.822Z,-14.37
2023-01-23T14:59:42.491Z,-14.37
2023-01-23T15:05:07.205Z,-14.44
2023-01-23T15:10:14.409Z,-14.46
2023-01-23T15:15:21.548Z,-14.54
2023-01-23T15:20:31.309Z,-14.46
2023-01-23T15:25:34.973Z,-14.45
2023-01-23T15:30:41.853Z,-14.32
2023-01-23T15:35:48.873Z,-14.48
2023-01-23T15:40:52.345Z,-14.46
2023-01-23T15:45:55.990Z,-14.79
2023-01-23T15:51:01.080Z,-14.65
2023-01-23T15:56:05.301Z,-14.62
2023-01-23T16:01:10.477Z,-14.62
2023-01-23T16:06:17.551Z,-14.58
2023-01-23T16:11:22.186Z,-14.52
2023-01-23T16:16:25.823Z,-14.49
2023-01-23T16:21:32.529Z,-14.48
2023-01-23T16:26:36.118Z,-14.53
2023-01-23T16:31:40.254Z,-14.43
2023-01-23T16:36:45.396Z,-14.69
2023-01-23T16:41:48.809Z,-14.63
2023-01-23T16:46:52.664Z,-14.87
2023-01-23T16:51:59.199Z,-14.70
2023-01-23T16:57:03.117Z,-14.85
2023-01-23T17:02:13.225Z,-14.71
2023-01-23T17:07:19.855Z,-14.88
2023-01-23T17:12:28.683Z,-14.87
2023-01-23T17:17:34.225Z,-15.06
2023-01-23T17:22:40.523Z,-15.00
2023-01-23T17:27:45.542Z,-14.96
2023-01-23T17:32:53.000Z,-14.97
2023-01-23T17:38:01.655Z,-15.00
2023-01-23T17:43:05.237Z,-14.91
2023-01-23T17:48:13.007Z,-15.11
2023-01-23T17:53:20.357Z,-15.11
2023-01-23T17:58:24.565Z,-15.02
2023-01-23T18:03:28.168Z,-14.91
2023-01-23T18:08:33.077Z,-14.89
2023-01-23T18:13:40.273Z,-14.93
2023-01-23T18:18:53.211Z,-15.10
2023-01-23T18:23:58.748Z,-15.00
2023-01-23T18:29:06.047Z,-14.99
2023-01-23T18:34:19.519Z,-15.00
2023-01-23T18:39:32.170Z,-15.01
2023-01-23T18:44:38.432Z,-14.86
2023-01-23T18:49:42.916Z,-14.92
2023-01-23T18:54:54.307Z,-14.93
2023-01-23T19:00:02.916Z,-14.85
2023-01-23T19:05:21.158Z,-15.02
2023-01-23T19:10:29.233Z,-14.92
2023-01-23T19:15:38.006Z,-15.10
2023-01-23T19:20:45.819Z,-14.99
2023-01-23T19:25:51.067Z,-15.10
2023-01-23T19:30:55.189Z,-15.06
2023-01-23T19:35:59.786Z,-15.12
2023-01-23T19:41:07.775Z,-15.11
2023-01-23T19:46:11.279Z,-15.17
2023-01-23T19:51:16.512Z,-15.20
2023-01-23T19:56:21.574Z,-15.08
2023-01-23T20:01:29.554Z,-15.11
2023-01-23T20:06:34.484Z,-15.24
2023-01-23T20:11:40.118Z,-15.14
2023-01-23T20:16:44.398Z,-15.04
2023-01-23T20:21:48.841Z,-15.16
2023-01-23T20:26:56.104Z,-15.08
2023-01-23T20:32:00.771Z,-15.23
2023-01-23T20:37:04.489Z,-15.20
2023-01-23T20:42:11.389Z,-15.24
2023-01-23T20:47:16.466Z,-15.23
2023-01-23T20:52:43.343Z,-15.09
2023-01-23T20:58:09.113Z,-15.17
2023-01-23T21:03:23.658Z,-15.17
2023-01-23T21:08:42.914Z,-15.26
2023-01-23T21:13:54.716Z,-15.53
2023-01-23T21:18:58.393Z,-15.49
2023-01-23T21:24:14.631Z,-15.67
2023-01-23T21:29:23.590Z,-15.50
2023-01-23T21:34:29.660Z,-15.55
2023-01-23T21:39:36.155Z,-15.57
2023-01-23T21:44:41.190Z,-15.58
2023-01-23T21:55:02.566Z,-15.52
2023-01-23T22:00:29.750Z,-15.54
2023-01-23T22:05:35.248Z,-15.55
2023-01-23T22:10:39.652Z,-15.63
2023-01-23T22:15:49.072Z,-15.69
2023-01-23T22:20:56.575Z,-15.64
2023-01-23T22:26:16.092Z,-15.73
2023-01-23T22:31:21.409Z,-15.75
2023-01-23T22:36:25.332Z,-15.68
2023-01-23T22:41:29.258Z,-15.77
2023-01-23T22:46:36.351Z,-15.71
2023-01-23T22:51:39.803Z,-15.57
